sensor_id;sensor_type;location;lat;lon;timestamp;P1;durP1;ratioP1;P2;durP2;ratioP2
29210;SDS011;16250;49.932;10.980;2023-09-19T00:00:30;4.05;;;3.28;;
29210;SDS011;16250;49.932;10.980;2023-09-19T00:02:57;9.88;;;3.20;;
29210;SDS011;16250;49.932;10.980;2023-09-19T00:05:24;6.40;;;3.42;;
29210;SDS011;16250;49.932;10.980;2023-09-19T00:07:52;5.43;;;3.20;;
29210;SDS011;16250;49.932;10.980;2023-09-19T00:10:24;4.90;;;3.00;;
29210;SDS011;16250;49.932;10.980;2023-09-19T00:12:52;7.15;;;3.22;;
29210;SDS011;16250;49.932;10.980;2023-09-19T00:15:20;7.75;;;3.15;;
29210;SDS011;16250;49.932;10.980;2023-09-19T00:17:46;4.25;;;3.10;;
29210;SDS011;16250;49.932;10.980;2023-09-19T00:20:13;5.30;;;2.80;;
29210;SDS011;16250;49.932;10.980;2023-09-19T00:22:42;7.53;;;3.50;;
29210;SDS011;16250;49.932;10.980;2023-09-19T00:25:08;7.20;;;3.10;;
29210;SDS011;16250;49.932;10.980;2023-09-19T00:27:35;4.22;;;2.80;;
29210;SDS011;16250;49.932;10.980;2023-09-19T00:30:04;5.00;;;2.97;;
29210;SDS011;16250;49.932;10.980;2023-09-19T00:32:30;4.20;;;2.97;;
29210;SDS011;16250;49.932;10.980;2023-09-19T00:34:55;5.53;;;2.83;;
29210;SDS011;16250;49.932;10.980;2023-09-19T00:37:21;5.82;;;2.70;;
29210;SDS011;16250;49.932;10.980;2023-09-19T00:39:46;3.42;;;2.65;;
29210;SDS011;16250;49.932;10.980;2023-09-19T00:42:17;5.53;;;3.10;;
29210;SDS011;16250;49.932;10.980;2023-09-19T00:44:46;5.82;;;2.80;;
29210;SDS011;16250;49.932;10.980;2023-09-19T00:47:12;4.90;;;2.80;;
29210;SDS011;16250;49.932;10.980;2023-09-19T00:49:46;3.17;;;2.60;;
29210;SDS011;16250;49.932;10.980;2023-09-19T00:52:17;4.63;;;2.90;;
29210;SDS011;16250;49.932;10.980;2023-09-19T00:54:46;3.92;;;2.63;;
29210;SDS011;16250;49.932;10.980;2023-09-19T00:57:11;6.45;;;2.90;;
29210;SDS011;16250;49.932;10.980;2023-09-19T00:59:37;5.18;;;2.60;;
29210;SDS011;16250;49.932;10.980;2023-09-19T01:02:02;2.78;;;2.40;;
29210;SDS011;16250;49.932;10.980;2023-09-19T01:04:31;4.05;;;2.38;;
29210;SDS011;16250;49.932;10.980;2023-09-19T01:06:56;4.05;;;2.50;;
29210;SDS011;16250;49.932;10.980;2023-09-19T01:09:23;5.05;;;2.35;;
29210;SDS011;16250;49.932;10.980;2023-09-19T01:11:49;3.53;;;2.17;;
29210;SDS011;16250;49.932;10.980;2023-09-19T01:22:37;4.93;;;2.65;;
29210;SDS011;16250;49.932;10.980;2023-09-19T01:30:47;4.05;;;2.50;;
29210;SDS011;16250;49.932;10.980;2023-09-19T01:33:16;4.68;;;2.30;;
29210;SDS011;16250;49.932;10.980;2023-09-19T01:35:42;4.35;;;2.33;;
29210;SDS011;16250;49.932;10.980;2023-09-19T01:38:07;5.85;;;2.30;;
29210;SDS011;16250;49.932;10.980;2023-09-19T01:40:43;3.22;;;2.03;;
29210;SDS011;16250;49.932;10.980;2023-09-19T01:43:20;6.15;;;2.20;;
29210;SDS011;16250;49.932;10.980;2023-09-19T01:46:09;4.10;;;2.40;;
29210;SDS011;16250;49.932;10.980;2023-09-19T01:48:40;5.25;;;2.25;;
29210;SDS011;16250;49.932;10.980;2023-09-19T01:51:11;2.30;;;1.95;;
29210;SDS011;16250;49.932;10.980;2023-09-19T01:53:44;3.00;;;2.33;;
29210;SDS011;16250;49.932;10.980;2023-09-19T01:56:32;2.35;;;1.88;;
29210;SDS011;16250;49.932;10.980;2023-09-19T01:59:04;3.75;;;2.10;;
29210;SDS011;16250;49.932;10.980;2023-09-19T02:01:33;4.45;;;2.10;;
29210;SDS011;16250;49.932;10.980;2023-09-19T02:04:01;3.20;;;2.10;;
29210;SDS011;16250;49.932;10.980;2023-09-19T02:06:26;3.33;;;2.00;;
29210;SDS011;16250;49.932;10.980;2023-09-19T02:08:53;4.65;;;2.08;;
29210;SDS011;16250;49.932;10.980;2023-09-19T02:11:19;2.42;;;2.22;;
29210;SDS011;16250;49.932;10.980;2023-09-19T02:13:44;3.08;;;2.20;;
29210;SDS011;16250;49.932;10.980;2023-09-19T02:16:10;3.38;;;2.15;;
29210;SDS011;16250;49.932;10.980;2023-09-19T02:18:37;4.65;;;2.30;;
29210;SDS011;16250;49.932;10.980;2023-09-19T02:21:04;3.40;;;2.10;;
29210;SDS011;16250;49.932;10.980;2023-09-19T02:23:31;5.05;;;2.10;;
29210;SDS011;16250;49.932;10.980;2023-09-19T02:25:57;3.17;;;2.20;;
29210;SDS011;16250;49.932;10.980;2023-09-19T02:28:23;3.78;;;1.95;;
29210;SDS011;16250;49.932;10.980;2023-09-19T02:30:48;4.25;;;1.92;;
29210;SDS011;16250;49.932;10.980;2023-09-19T02:33:15;3.42;;;2.47;;
29210;SDS011;16250;49.932;10.980;2023-09-19T02:35:42;2.53;;;2.10;;
29210;SDS011;16250;49.932;10.980;2023-09-19T02:38:07;3.95;;;1.90;;
29210;SDS011;16250;49.932;10.980;2023-09-19T02:40:33;4.28;;;2.40;;
29210;SDS011;16250;49.932;10.980;2023-09-19T02:43:00;3.47;;;1.80;;
29210;SDS011;16250;49.932;10.980;2023-09-19T02:45:27;3.20;;;2.03;;
29210;SDS011;16250;49.932;10.980;2023-09-19T02:47:52;2.85;;;2.03;;
29210;SDS011;16250;49.932;10.980;2023-09-19T02:50:18;2.70;;;2.13;;
29210;SDS011;16250;49.932;10.980;2023-09-19T02:52:44;4.72;;;1.98;;
29210;SDS011;16250;49.932;10.980;2023-09-19T02:55:12;2.78;;;2.10;;
29210;SDS011;16250;49.932;10.980;2023-09-19T02:57:45;3.22;;;1.80;;
29210;SDS011;16250;49.932;10.980;2023-09-19T03:00:13;3.95;;;2.15;;
29210;SDS011;16250;49.932;10.980;2023-09-19T03:02:39;5.47;;;2.25;;
29210;SDS011;16250;49.932;10.980;2023-09-19T03:05:07;2.70;;;1.98;;
29210;SDS011;16250;49.932;10.980;2023-09-19T03:07:33;2.88;;;2.10;;
29210;SDS011;16250;49.932;10.980;2023-09-19T03:09:58;2.17;;;1.98;;
29210;SDS011;16250;49.932;10.980;2023-09-19T03:12:25;5.97;;;2.42;;
29210;SDS011;16250;49.932;10.980;2023-09-19T03:14:51;4.18;;;2.40;;
29210;SDS011;16250;49.932;10.980;2023-09-19T03:17:16;4.05;;;2.25;;
29210;SDS011;16250;49.932;10.980;2023-09-19T03:19:42;4.93;;;2.10;;
29210;SDS011;16250;49.932;10.980;2023-09-19T03:22:08;4.97;;;2.20;;
29210;SDS011;16250;49.932;10.980;2023-09-19T03:24:33;3.72;;;2.05;;
29210;SDS011;16250;49.932;10.980;2023-09-19T03:27:01;3.35;;;2.40;;
29210;SDS011;16250;49.932;10.980;2023-09-19T03:29:28;4.28;;;2.20;;
29210;SDS011;16250;49.932;10.980;2023-09-19T03:31:53;3.25;;;2.20;;
29210;SDS011;16250;49.932;10.980;2023-09-19T03:34:20;2.80;;;2.47;;
29210;SDS011;16250;49.932;10.980;2023-09-19T03:36:45;4.18;;;2.22;;
29210;SDS011;16250;49.932;10.980;2023-09-19T03:39:11;4.20;;;2.25;;
29210;SDS011;16250;49.932;10.980;2023-09-19T03:41:37;4.07;;;2.33;;
29210;SDS011;16250;49.932;10.980;2023-09-19T03:44:04;4.80;;;2.75;;
29210;SDS011;16250;49.932;10.980;2023-09-19T03:46:31;5.25;;;2.03;;
29210;SDS011;16250;49.932;10.980;2023-09-19T03:48:58;4.03;;;2.15;;
29210;SDS011;16250;49.932;10.980;2023-09-19T03:51:23;4.65;;;1.98;;
29210;SDS011;16250;49.932;10.980;2023-09-19T03:53:49;4.60;;;2.10;;
29210;SDS011;16250;49.932;10.980;2023-09-19T03:56:15;3.10;;;2.28;;
29210;SDS011;16250;49.932;10.980;2023-09-19T03:58:40;4.25;;;2.15;;
29210;SDS011;16250;49.932;10.980;2023-09-19T04:01:06;3.58;;;2.03;;
29210;SDS011;16250;49.932;10.980;2023-09-19T04:03:32;4.30;;;1.95;;
29210;SDS011;16250;49.932;10.980;2023-09-19T04:06:12;3.38;;;2.22;;
29210;SDS011;16250;49.932;10.980;2023-09-19T04:08:38;3.17;;;1.95;;
29210;SDS011;16250;49.932;10.980;2023-09-19T04:11:03;5.07;;;2.40;;
29210;SDS011;16250;49.932;10.980;2023-09-19T04:13:29;3.35;;;2.00;;
29210;SDS011;16250;49.932;10.980;2023-09-19T04:15:54;2.67;;;2.20;;
29210;SDS011;16250;49.932;10.980;2023-09-19T04:18:20;5.07;;;2.58;;
29210;SDS011;16250;49.932;10.980;2023-09-19T04:20:49;3.22;;;2.17;;
29210;SDS011;16250;49.932;10.980;2023-09-19T04:23:15;4.03;;;2.30;;
29210;SDS011;16250;49.932;10.980;2023-09-19T04:25:41;3.80;;;2.67;;
29210;SDS011;16250;49.932;10.980;2023-09-19T04:28:07;6.28;;;2.80;;
29210;SDS011;16250;49.932;10.980;2023-09-19T04:30:32;4.05;;;2.53;;
29210;SDS011;16250;49.932;10.980;2023-09-19T04:32:58;4.10;;;2.38;;
29210;SDS011;16250;49.932;10.980;2023-09-19T04:35:24;4.80;;;3.00;;
29210;SDS011;16250;49.932;10.980;2023-09-19T04:37:50;3.40;;;3.10;;
29210;SDS011;16250;49.932;10.980;2023-09-19T04:40:16;6.05;;;3.28;;
29210;SDS011;16250;49.932;10.980;2023-09-19T04:42:43;3.20;;;2.90;;
29210;SDS011;16250;49.932;10.980;2023-09-19T04:45:08;4.85;;;3.20;;
29210;SDS011;16250;49.932;10.980;2023-09-19T04:47:35;3.45;;;3.13;;
29210;SDS011;16250;49.932;10.980;2023-09-19T04:50:03;5.68;;;3.47;;
29210;SDS011;16250;49.932;10.980;2023-09-19T04:52:30;5.22;;;3.63;;
29210;SDS011;16250;49.932;10.980;2023-09-19T04:54:56;4.80;;;3.50;;
29210;SDS011;16250;49.932;10.980;2023-09-19T04:57:22;4.03;;;3.33;;
29210;SDS011;16250;49.932;10.980;2023-09-19T04:59:48;5.43;;;3.42;;
29210;SDS011;16250;49.932;10.980;2023-09-19T05:02:13;3.65;;;3.35;;
29210;SDS011;16250;49.932;10.980;2023-09-19T05:04:38;5.43;;;3.45;;
29210;SDS011;16250;49.932;10.980;2023-09-19T05:07:04;4.20;;;3.65;;
29210;SDS011;16250;49.932;10.980;2023-09-19T05:09:29;5.55;;;4.20;;
29210;SDS011;16250;49.932;10.980;2023-09-19T05:11:55;5.35;;;3.40;;
29210;SDS011;16250;49.932;10.980;2023-09-19T05:14:21;5.25;;;3.60;;
29210;SDS011;16250;49.932;10.980;2023-09-19T05:16:47;5.30;;;3.75;;
29210;SDS011;16250;49.932;10.980;2023-09-19T05:19:12;5.55;;;3.90;;
29210;SDS011;16250;49.932;10.980;2023-09-19T05:21:38;6.28;;;4.00;;
29210;SDS011;16250;49.932;10.980;2023-09-19T05:24:06;4.32;;;3.55;;
29210;SDS011;16250;49.932;10.980;2023-09-19T05:26:34;5.28;;;4.10;;
29210;SDS011;16250;49.932;10.980;2023-09-19T05:28:59;4.43;;;3.90;;
29210;SDS011;16250;49.932;10.980;2023-09-19T05:31:27;4.68;;;4.03;;
29210;SDS011;16250;49.932;10.980;2023-09-19T05:33:52;5.40;;;3.90;;
29210;SDS011;16250;49.932;10.980;2023-09-19T05:36:19;5.20;;;3.92;;
29210;SDS011;16250;49.932;10.980;2023-09-19T05:38:45;4.65;;;3.88;;
29210;SDS011;16250;49.932;10.980;2023-09-19T05:41:10;5.28;;;3.90;;
29210;SDS011;16250;49.932;10.980;2023-09-19T05:43:38;4.85;;;3.75;;
29210;SDS011;16250;49.932;10.980;2023-09-19T05:46:06;4.53;;;4.13;;
29210;SDS011;16250;49.932;10.980;2023-09-19T05:48:33;4.50;;;4.10;;
29210;SDS011;16250;49.932;10.980;2023-09-19T05:50:58;4.45;;;4.03;;
29210;SDS011;16250;49.932;10.980;2023-09-19T05:53:24;6.03;;;4.00;;
29210;SDS011;16250;49.932;10.980;2023-09-19T05:55:49;4.85;;;4.35;;
29210;SDS011;16250;49.932;10.980;2023-09-19T05:58:15;4.38;;;3.97;;
29210;SDS011;16250;49.932;10.980;2023-09-19T06:00:42;4.53;;;4.13;;
29210;SDS011;16250;49.932;10.980;2023-09-19T06:03:09;4.57;;;4.20;;
29210;SDS011;16250;49.932;10.980;2023-09-19T06:05:35;5.20;;;4.68;;
29210;SDS011;16250;49.932;10.980;2023-09-19T06:08:00;5.85;;;4.60;;
29210;SDS011;16250;49.932;10.980;2023-09-19T06:10:26;5.10;;;4.57;;
29210;SDS011;16250;49.932;10.980;2023-09-19T06:12:53;5.05;;;4.57;;
29210;SDS011;16250;49.932;10.980;2023-09-19T06:15:20;4.53;;;4.10;;
29210;SDS011;16250;49.932;10.980;2023-09-19T06:20:14;4.20;;;3.83;;
29210;SDS011;16250;49.932;10.980;2023-09-19T06:22:43;4.45;;;3.42;;
29210;SDS011;16250;49.932;10.980;2023-09-19T06:25:10;5.38;;;3.47;;
29210;SDS011;16250;49.932;10.980;2023-09-19T06:27:44;3.70;;;3.40;;
29210;SDS011;16250;49.932;10.980;2023-09-19T06:30:10;6.38;;;3.97;;
29210;SDS011;16250;49.932;10.980;2023-09-19T06:32:39;3.60;;;3.17;;
29210;SDS011;16250;49.932;10.980;2023-09-19T06:35:09;3.85;;;3.28;;
29210;SDS011;16250;49.932;10.980;2023-09-19T06:37:36;5.45;;;3.13;;
29210;SDS011;16250;49.932;10.980;2023-09-19T06:40:05;3.05;;;2.72;;
29210;SDS011;16250;49.932;10.980;2023-09-19T06:42:31;4.95;;;3.10;;
29210;SDS011;16250;49.932;10.980;2023-09-19T06:44:57;3.42;;;3.13;;
29210;SDS011;16250;49.932;10.980;2023-09-19T06:47:23;4.05;;;3.10;;
29210;SDS011;16250;49.932;10.980;2023-09-19T06:49:51;4.78;;;2.78;;
29210;SDS011;16250;49.932;10.980;2023-09-19T06:52:17;3.15;;;2.85;;
29210;SDS011;16250;49.932;10.980;2023-09-19T06:54:42;4.03;;;2.70;;
29210;SDS011;16250;49.932;10.980;2023-09-19T06:57:07;4.97;;;2.90;;
29210;SDS011;16250;49.932;10.980;2023-09-19T06:59:34;4.10;;;2.60;;
29210;SDS011;16250;49.932;10.980;2023-09-19T07:02:01;4.07;;;2.70;;
29210;SDS011;16250;49.932;10.980;2023-09-19T07:04:26;4.47;;;2.70;;
29210;SDS011;16250;49.932;10.980;2023-09-19T07:06:52;3.65;;;2.38;;
29210;SDS011;16250;49.932;10.980;2023-09-19T07:09:17;3.95;;;2.85;;
29210;SDS011;16250;49.932;10.980;2023-09-19T07:11:44;2.92;;;2.40;;
29210;SDS011;16250;49.932;10.980;2023-09-19T07:14:10;4.45;;;2.70;;
29210;SDS011;16250;49.932;10.980;2023-09-19T07:16:37;3.67;;;2.50;;
29210;SDS011;16250;49.932;10.980;2023-09-19T07:19:03;4.13;;;2.30;;
29210;SDS011;16250;49.932;10.980;2023-09-19T07:21:29;5.43;;;2.60;;
29210;SDS011;16250;49.932;10.980;2023-09-19T07:23:54;2.92;;;2.28;;
29210;SDS011;16250;49.932;10.980;2023-09-19T07:26:20;3.75;;;2.05;;
29210;SDS011;16250;49.932;10.980;2023-09-19T07:28:45;2.60;;;2.00;;
29210;SDS011;16250;49.932;10.980;2023-09-19T07:31:11;4.28;;;2.47;;
29210;SDS011;16250;49.932;10.980;2023-09-19T07:33:38;3.90;;;2.75;;
29210;SDS011;16250;49.932;10.980;2023-09-19T07:36:03;6.35;;;2.25;;
29210;SDS011;16250;49.932;10.980;2023-09-19T07:38:28;3.63;;;2.33;;
29210;SDS011;16250;49.932;10.980;2023-09-19T07:40:59;4.10;;;2.40;;
29210;SDS011;16250;49.932;10.980;2023-09-19T07:43:25;4.22;;;2.42;;
29210;SDS011;16250;49.932;10.980;2023-09-19T07:45:51;3.60;;;2.30;;
29210;SDS011;16250;49.932;10.980;2023-09-19T07:48:17;5.30;;;2.65;;
29210;SDS011;16250;49.932;10.980;2023-09-19T07:50:42;4.70;;;2.30;;
29210;SDS011;16250;49.932;10.980;2023-09-19T07:53:09;4.97;;;2.30;;
29210;SDS011;16250;49.932;10.980;2023-09-19T07:55:34;3.45;;;2.50;;
29210;SDS011;16250;49.932;10.980;2023-09-19T07:57:59;4.28;;;2.50;;
29210;SDS011;16250;49.932;10.980;2023-09-19T08:00:25;5.00;;;2.50;;
29210;SDS011;16250;49.932;10.980;2023-09-19T08:02:51;3.92;;;2.30;;
29210;SDS011;16250;49.932;10.980;2023-09-19T08:05:17;3.65;;;2.40;;
29210;SDS011;16250;49.932;10.980;2023-09-19T08:07:44;3.05;;;2.22;;
29210;SDS011;16250;49.932;10.980;2023-09-19T08:10:17;6.30;;;2.72;;
29210;SDS011;16250;49.932;10.980;2023-09-19T08:12:44;3.72;;;2.50;;
29210;SDS011;16250;49.932;10.980;2023-09-19T08:15:14;3.75;;;2.38;;
29210;SDS011;16250;49.932;10.980;2023-09-19T08:17:46;4.45;;;2.40;;
29210;SDS011;16250;49.932;10.980;2023-09-19T08:20:12;4.03;;;2.35;;
29210;SDS011;16250;49.932;10.980;2023-09-19T08:22:48;3.53;;;2.50;;
29210;SDS011;16250;49.932;10.980;2023-09-19T08:25:20;2.45;;;2.20;;
29210;SDS011;16250;49.932;10.980;2023-09-19T08:27:46;3.55;;;2.17;;
29210;SDS011;16250;49.932;10.980;2023-09-19T08:30:17;2.95;;;2.15;;
29210;SDS011;16250;49.932;10.980;2023-09-19T08:32:45;3.63;;;2.10;;
29210;SDS011;16250;49.932;10.980;2023-09-19T08:35:11;2.50;;;1.73;;
29210;SDS011;16250;49.932;10.980;2023-09-19T08:37:36;3.42;;;2.20;;
29210;SDS011;16250;49.932;10.980;2023-09-19T08:40:02;2.88;;;1.88;;
29210;SDS011;16250;49.932;10.980;2023-09-19T08:42:27;3.17;;;1.73;;
29210;SDS011;16250;49.932;10.980;2023-09-19T08:44:54;3.95;;;1.80;;
29210;SDS011;16250;49.932;10.980;2023-09-19T08:47:33;3.63;;;1.85;;
29210;SDS011;16250;49.932;10.980;2023-09-19T08:50:01;4.30;;;1.70;;
29210;SDS011;16250;49.932;10.980;2023-09-19T08:52:32;4.38;;;1.80;;
29210;SDS011;16250;49.932;10.980;2023-09-19T08:55:02;3.50;;;1.70;;
29210;SDS011;16250;49.932;10.980;2023-09-19T08:57:35;4.45;;;2.13;;
29210;SDS011;16250;49.932;10.980;2023-09-19T09:00:04;3.63;;;1.80;;
29210;SDS011;16250;49.932;10.980;2023-09-19T09:02:40;3.83;;;2.05;;
29210;SDS011;16250;49.932;10.980;2023-09-19T09:05:07;3.15;;;1.60;;
29210;SDS011;16250;49.932;10.980;2023-09-19T09:07:34;3.83;;;2.00;;
29210;SDS011;16250;49.932;10.980;2023-09-19T09:10:04;2.72;;;1.63;;
29210;SDS011;16250;49.932;10.980;2023-09-19T09:12:30;5.72;;;2.38;;
29210;SDS011;16250;49.932;10.980;2023-09-19T09:14:56;3.00;;;2.05;;
29210;SDS011;16250;49.932;10.980;2023-09-19T09:17:23;3.08;;;1.92;;
29210;SDS011;16250;49.932;10.980;2023-09-19T09:19:51;3.85;;;1.75;;
29210;SDS011;16250;49.932;10.980;2023-09-19T09:22:17;4.15;;;2.00;;
29210;SDS011;16250;49.932;10.980;2023-09-19T09:24:53;3.50;;;1.70;;
29210;SDS011;16250;49.932;10.980;2023-09-19T09:27:19;3.50;;;1.73;;
29210;SDS011;16250;49.932;10.980;2023-09-19T09:29:48;3.53;;;2.00;;
29210;SDS011;16250;49.932;10.980;2023-09-19T09:34:54;3.10;;;1.92;;
29210;SDS011;16250;49.932;10.980;2023-09-19T09:37:21;5.95;;;2.00;;
29210;SDS011;16250;49.932;10.980;2023-09-19T09:39:48;5.53;;;2.00;;
29210;SDS011;16250;49.932;10.980;2023-09-19T09:42:41;3.55;;;2.00;;
29210;SDS011;16250;49.932;10.980;2023-09-19T09:45:22;2.83;;;1.95;;
29210;SDS011;16250;49.932;10.980;2023-09-19T09:47:57;4.50;;;2.05;;
29210;SDS011;16250;49.932;10.980;2023-09-19T09:50:27;2.85;;;1.92;;
29210;SDS011;16250;49.932;10.980;2023-09-19T09:56:00;3.88;;;2.08;;
29210;SDS011;16250;49.932;10.980;2023-09-19T09:58:27;3.28;;;1.92;;
29210;SDS011;16250;49.932;10.980;2023-09-19T10:00:57;4.70;;;2.22;;
29210;SDS011;16250;49.932;10.980;2023-09-19T10:03:32;3.55;;;2.53;;
29210;SDS011;16250;49.932;10.980;2023-09-19T10:09:00;4.47;;;2.47;;
29210;SDS011;16250;49.932;10.980;2023-09-19T10:11:46;2.60;;;1.88;;
29210;SDS011;16250;49.932;10.980;2023-09-19T10:14:14;2.95;;;2.25;;
29210;SDS011;16250;49.932;10.980;2023-09-19T10:16:43;5.93;;;2.30;;
29210;SDS011;16250;49.932;10.980;2023-09-19T10:19:12;3.38;;;2.15;;
29210;SDS011;16250;49.932;10.980;2023-09-19T10:21:41;5.38;;;2.30;;
29210;SDS011;16250;49.932;10.980;2023-09-19T10:24:08;6.55;;;2.40;;
29210;SDS011;16250;49.932;10.980;2023-09-19T10:26:34;4.95;;;2.00;;
29210;SDS011;16250;49.932;10.980;2023-09-19T10:29:01;3.78;;;1.92;;
29210;SDS011;16250;49.932;10.980;2023-09-19T10:31:28;5.40;;;2.08;;
29210;SDS011;16250;49.932;10.980;2023-09-19T10:33:55;4.78;;;2.13;;
29210;SDS011;16250;49.932;10.980;2023-09-19T10:36:23;4.25;;;1.90;;
29210;SDS011;16250;49.932;10.980;2023-09-19T10:38:50;2.92;;;1.95;;
29210;SDS011;16250;49.932;10.980;2023-09-19T10:41:20;3.55;;;1.83;;
29210;SDS011;16250;49.932;10.980;2023-09-19T10:43:47;4.10;;;1.98;;
29210;SDS011;16250;49.932;10.980;2023-09-19T10:46:13;3.88;;;1.83;;
29210;SDS011;16250;49.932;10.980;2023-09-19T10:48:39;3.60;;;1.98;;
29210;SDS011;16250;49.932;10.980;2023-09-19T10:53:41;4.00;;;1.80;;
29210;SDS011;16250;49.932;10.980;2023-09-19T10:58:42;8.15;;;2.00;;
29210;SDS011;16250;49.932;10.980;2023-09-19T11:01:09;2.55;;;1.48;;
29210;SDS011;16250;49.932;10.980;2023-09-19T11:03:40;3.45;;;1.77;;
29210;SDS011;16250;49.932;10.980;2023-09-19T11:09:00;3.72;;;1.55;;
29210;SDS011;16250;49.932;10.980;2023-09-19T11:30:42;4.47;;;1.90;;
29210;SDS011;16250;49.932;10.980;2023-09-19T11:33:30;4.85;;;1.60;;
29210;SDS011;16250;49.932;10.980;2023-09-19T11:36:03;5.55;;;1.95;;
29210;SDS011;16250;49.932;10.980;2023-09-19T11:46:51;2.38;;;1.60;;
29210;SDS011;16250;49.932;10.980;2023-09-19T11:49:25;5.47;;;1.83;;
29210;SDS011;16250;49.932;10.980;2023-09-19T11:51:55;2.33;;;1.67;;
29210;SDS011;16250;49.932;10.980;2023-09-19T11:54:20;1.95;;;1.63;;
29210;SDS011;16250;49.932;10.980;2023-09-19T11:56:54;3.78;;;2.35;;
29210;SDS011;16250;49.932;10.980;2023-09-19T11:59:20;2.45;;;1.73;;
29210;SDS011;16250;49.932;10.980;2023-09-19T12:01:53;3.15;;;1.80;;
29210;SDS011;16250;49.932;10.980;2023-09-19T12:07:08;4.53;;;1.90;;
29210;SDS011;16250;49.932;10.980;2023-09-19T12:09:41;13.27;;;3.55;;
29210;SDS011;16250;49.932;10.980;2023-09-19T12:12:25;9.10;;;2.17;;
29210;SDS011;16250;49.932;10.980;2023-09-19T12:14:58;3.75;;;1.75;;
29210;SDS011;16250;49.932;10.980;2023-09-19T12:17:34;3.55;;;1.98;;
29210;SDS011;16250;49.932;10.980;2023-09-19T12:20:01;3.42;;;1.85;;
29210;SDS011;16250;49.932;10.980;2023-09-19T12:25:06;3.85;;;1.75;;
29210;SDS011;16250;49.932;10.980;2023-09-19T12:27:40;5.85;;;2.13;;
29210;SDS011;16250;49.932;10.980;2023-09-19T12:30:12;3.65;;;1.80;;
29210;SDS011;16250;49.932;10.980;2023-09-19T12:32:39;3.60;;;1.88;;
29210;SDS011;16250;49.932;10.980;2023-09-19T12:35:06;2.95;;;1.65;;
29210;SDS011;16250;49.932;10.980;2023-09-19T12:37:51;4.60;;;2.10;;
29210;SDS011;16250;49.932;10.980;2023-09-19T12:40:20;4.30;;;2.33;;
29210;SDS011;16250;49.932;10.980;2023-09-19T12:42:47;4.95;;;2.30;;
29210;SDS011;16250;49.932;10.980;2023-09-19T12:45:14;3.70;;;2.22;;
29210;SDS011;16250;49.932;10.980;2023-09-19T12:48:17;4.35;;;2.00;;
29210;SDS011;16250;49.932;10.980;2023-09-19T12:51:07;4.18;;;2.20;;
29210;SDS011;16250;49.932;10.980;2023-09-19T12:53:39;5.22;;;2.13;;
29210;SDS011;16250;49.932;10.980;2023-09-19T12:56:09;3.60;;;2.20;;
29210;SDS011;16250;49.932;10.980;2023-09-19T13:01:20;6.20;;;2.20;;
29210;SDS011;16250;49.932;10.980;2023-09-19T13:04:10;3.30;;;2.00;;
29210;SDS011;16250;49.932;10.980;2023-09-19T13:06:37;7.05;;;2.70;;
29210;SDS011;16250;49.932;10.980;2023-09-19T13:09:10;5.78;;;2.17;;
29210;SDS011;16250;49.932;10.980;2023-09-19T13:11:36;4.72;;;2.15;;
29210;SDS011;16250;49.932;10.980;2023-09-19T13:14:16;3.85;;;2.10;;
29210;SDS011;16250;49.932;10.980;2023-09-19T13:16:58;3.13;;;1.70;;
29210;SDS011;16250;49.932;10.980;2023-09-19T13:25:24;4.88;;;2.28;;
29210;SDS011;16250;49.932;10.980;2023-09-19T13:27:51;2.97;;;1.63;;
29210;SDS011;16250;49.932;10.980;2023-09-19T13:30:21;3.83;;;1.90;;
29210;SDS011;16250;49.932;10.980;2023-09-19T13:32:50;3.35;;;1.80;;
29210;SDS011;16250;49.932;10.980;2023-09-19T13:35:16;4.03;;;2.20;;
29210;SDS011;16250;49.932;10.980;2023-09-19T13:37:42;2.72;;;1.67;;
29210;SDS011;16250;49.932;10.980;2023-09-19T13:40:08;2.95;;;2.08;;
29210;SDS011;16250;49.932;10.980;2023-09-19T13:42:34;4.93;;;2.17;;
29210;SDS011;16250;49.932;10.980;2023-09-19T13:45:02;5.20;;;1.83;;
29210;SDS011;16250;49.932;10.980;2023-09-19T13:47:30;2.30;;;1.65;;
29210;SDS011;16250;49.932;10.980;2023-09-19T13:49:57;3.63;;;1.83;;
29210;SDS011;16250;49.932;10.980;2023-09-19T13:52:23;4.28;;;1.70;;
29210;SDS011;16250;49.932;10.980;2023-09-19T13:54:49;4.93;;;1.95;;
29210;SDS011;16250;49.932;10.980;2023-09-19T13:57:15;3.50;;;1.90;;
29210;SDS011;16250;49.932;10.980;2023-09-19T13:59:41;6.13;;;2.03;;
29210;SDS011;16250;49.932;10.980;2023-09-19T14:02:07;3.88;;;1.80;;
29210;SDS011;16250;49.932;10.980;2023-09-19T14:04:32;4.68;;;1.88;;
29210;SDS011;16250;49.932;10.980;2023-09-19T14:06:59;4.80;;;2.25;;
29210;SDS011;16250;49.932;10.980;2023-09-19T14:09:25;5.53;;;2.40;;
29210;SDS011;16250;49.932;10.980;2023-09-19T14:11:51;6.95;;;2.30;;
29210;SDS011;16250;49.932;10.980;2023-09-19T14:14:20;2.58;;;1.80;;
29210;SDS011;16250;49.932;10.980;2023-09-19T14:16:46;3.47;;;1.95;;
29210;SDS011;16250;49.932;10.980;2023-09-19T14:19:12;2.55;;;1.58;;
29210;SDS011;16250;49.932;10.980;2023-09-19T14:21:39;3.70;;;1.88;;
29210;SDS011;16250;49.932;10.980;2023-09-19T14:24:04;4.38;;;1.98;;
29210;SDS011;16250;49.932;10.980;2023-09-19T14:26:35;5.63;;;1.90;;
29210;SDS011;16250;49.932;10.980;2023-09-19T14:29:00;3.55;;;2.20;;
29210;SDS011;16250;49.932;10.980;2023-09-19T14:31:26;6.30;;;2.20;;
29210;SDS011;16250;49.932;10.980;2023-09-19T14:33:53;3.20;;;2.00;;
29210;SDS011;16250;49.932;10.980;2023-09-19T14:36:24;5.03;;;2.10;;
29210;SDS011;16250;49.932;10.980;2023-09-19T14:38:53;4.45;;;2.20;;
29210;SDS011;16250;49.932;10.980;2023-09-19T14:41:19;3.28;;;1.90;;
29210;SDS011;16250;49.932;10.980;2023-09-19T14:43:45;5.88;;;2.00;;
29210;SDS011;16250;49.932;10.980;2023-09-19T14:46:10;2.60;;;1.98;;
29210;SDS011;16250;49.932;10.980;2023-09-19T14:48:36;4.70;;;2.15;;
29210;SDS011;16250;49.932;10.980;2023-09-19T14:51:05;2.63;;;2.03;;
29210;SDS011;16250;49.932;10.980;2023-09-19T14:53:31;5.25;;;2.22;;
29210;SDS011;16250;49.932;10.980;2023-09-19T14:56:00;4.78;;;2.17;;
29210;SDS011;16250;49.932;10.980;2023-09-19T14:58:29;3.13;;;1.98;;
29210;SDS011;16250;49.932;10.980;2023-09-19T15:01:08;3.40;;;1.90;;
29210;SDS011;16250;49.932;10.980;2023-09-19T15:03:37;4.57;;;1.77;;
29210;SDS011;16250;49.932;10.980;2023-09-19T15:06:11;4.75;;;2.55;;
29210;SDS011;16250;49.932;10.980;2023-09-19T15:08:43;3.38;;;2.03;;
29210;SDS011;16250;49.932;10.980;2023-09-19T15:11:12;4.18;;;2.00;;
29210;SDS011;16250;49.932;10.980;2023-09-19T15:13:41;3.38;;;1.80;;
29210;SDS011;16250;49.932;10.980;2023-09-19T15:16:07;3.42;;;1.85;;
29210;SDS011;16250;49.932;10.980;2023-09-19T15:18:40;2.85;;;1.80;;
29210;SDS011;16250;49.932;10.980;2023-09-19T15:21:10;4.47;;;1.92;;
29210;SDS011;16250;49.932;10.980;2023-09-19T15:23:37;2.65;;;1.67;;
29210;SDS011;16250;49.932;10.980;2023-09-19T15:26:07;5.32;;;1.88;;
29210;SDS011;16250;49.932;10.980;2023-09-19T15:31:08;7.37;;;1.80;;
29210;SDS011;16250;49.932;10.980;2023-09-19T15:33:37;3.00;;;2.00;;
29210;SDS011;16250;49.932;10.980;2023-09-19T15:36:03;4.20;;;1.90;;
29210;SDS011;16250;49.932;10.980;2023-09-19T15:38:29;3.65;;;1.90;;
29210;SDS011;16250;49.932;10.980;2023-09-19T15:40:56;4.25;;;1.85;;
29210;SDS011;16250;49.932;10.980;2023-09-19T15:43:22;4.88;;;1.80;;
29210;SDS011;16250;49.932;10.980;2023-09-19T15:45:48;3.63;;;1.80;;
29210;SDS011;16250;49.932;10.980;2023-09-19T15:48:14;4.40;;;1.80;;
29210;SDS011;16250;49.932;10.980;2023-09-19T15:50:40;2.42;;;1.70;;
29210;SDS011;16250;49.932;10.980;2023-09-19T15:53:07;3.55;;;2.05;;
29210;SDS011;16250;49.932;10.980;2023-09-19T15:55:38;4.30;;;1.98;;